createdAt,value
2018-12-07T00:03:03.078Z,5.73
2018-12-07T00:06:07.678Z,5.71
2018-12-07T00:09:12.186Z,5.81
2018-12-07T00:12:16.927Z,5.72
2018-12-07T00:15:21.454Z,5.76
2018-12-07T00:18:26.020Z,5.82
2018-12-07T00:21:30.694Z,5.72
2018-12-07T00:24:35.257Z,5.69
2018-12-07T00:27:39.795Z,5.58
2018-12-07T00:30:44.559Z,5.70
2018-12-07T00:33:49.100Z,5.63
2018-12-07T00:36:53.690Z,5.59
2018-12-07T00:39:58.209Z,5.64
2018-12-07T00:43:02.782Z,5.67
2018-12-07T00:46:07.329Z,5.69
2018-12-07T00:49:11.889Z,5.66
2018-12-07T00:52:16.396Z,5.77
2018-12-07T00:55:35.429Z,5.64
2018-12-07T00:58:39.979Z,5.59
2018-12-07T01:01:44.606Z,5.55
2018-12-07T01:04:49.151Z,5.44
2018-12-07T01:07:53.644Z,5.50
2018-12-07T01:10:58.357Z,5.20
2018-12-07T01:14:02.929Z,5.38
2018-12-07T01:17:07.474Z,5.34
2018-12-07T01:20:12.004Z,5.39
2018-12-07T01:23:16.549Z,5.37
2018-12-07T01:26:21.160Z,4.95
2018-12-07T01:29:25.747Z,4.99
2018-12-07T01:32:30.444Z,5.14
2018-12-07T01:35:34.974Z,5.10
2018-12-07T01:38:39.541Z,4.85
2018-12-07T01:41:44.062Z,5.17
2018-12-07T01:44:48.604Z,5.23
2018-12-07T01:47:53.110Z,5.39
2018-12-07T01:50:57.626Z,5.15
2018-12-07T01:54:02.147Z,5.30
2018-12-07T01:57:06.766Z,5.28
2018-12-07T02:00:11.577Z,5.22
2018-12-07T02:03:16.235Z,4.95
2018-12-07T02:06:20.838Z,5.18
2018-12-07T02:09:25.450Z,5.22
2018-12-07T02:12:30.140Z,5.22
2018-12-07T02:15:35.372Z,5.14
2018-12-07T02:18:39.866Z,5.18
2018-12-07T02:21:45.545Z,5.28
2018-12-07T02:24:50.189Z,5.36
2018-12-07T02:28:00.488Z,4.71
2018-12-07T02:31:05.017Z,4.51
2018-12-07T02:34:09.527Z,4.65
2018-12-07T02:37:14.057Z,4.82
2018-12-07T02:40:18.606Z,4.89
2018-12-07T02:43:23.155Z,4.90
2018-12-07T02:46:27.670Z,5.01
2018-12-07T02:49:32.310Z,5.06
2018-12-07T02:52:36.838Z,4.47
2018-12-07T02:55:41.361Z,4.80
2018-12-07T02:58:46.018Z,4.91
2018-12-07T03:01:50.607Z,4.91
2018-12-07T03:04:55.300Z,4.89
2018-12-07T03:07:59.812Z,4.91
2018-12-07T03:11:04.497Z,5.02
2018-12-07T03:14:09.046Z,4.90
2018-12-07T03:17:13.676Z,5.01
2018-12-07T03:20:18.325Z,5.05
2018-12-07T03:23:23.013Z,5.14
2018-12-07T03:26:27.562Z,5.09
2018-12-07T03:29:32.110Z,4.99
2018-12-07T03:32:36.736Z,5.08
2018-12-07T03:35:41.304Z,4.85
2018-12-07T03:38:45.799Z,4.98
2018-12-07T03:41:50.394Z,5.02
2018-12-07T03:44:54.904Z,4.99
2018-12-07T03:47:59.474Z,4.96
2018-12-07T03:51:03.998Z,4.98
2018-12-07T03:54:08.582Z,4.90
2018-12-07T03:57:13.130Z,4.08
2018-12-07T04:00:17.653Z,4.54
2018-12-07T04:03:22.317Z,4.65
2018-12-07T04:06:26.850Z,4.75
2018-12-07T04:09:31.378Z,4.80
2018-12-07T04:12:36.071Z,4.63
2018-12-07T04:15:40.753Z,4.32
2018-12-07T04:18:45.310Z,4.48
2018-12-07T04:21:50.931Z,4.50
2018-12-07T04:24:55.443Z,3.99
2018-12-07T04:27:59.980Z,3.99
2018-12-07T04:31:04.578Z,3.53
2018-12-07T04:34:09.204Z,3.92
2018-12-07T04:37:13.833Z,3.89
2018-12-07T04:40:18.362Z,4.19
2018-12-07T04:43:22.879Z,4.11
2018-12-07T04:46:27.477Z,3.69
2018-12-07T04:49:31.997Z,4.02
2018-12-07T04:52:36.616Z,4.12
2018-12-07T04:55:41.323Z,3.93
2018-12-07T04:58:45.970Z,4.02
2018-12-07T05:01:50.569Z,4.18
2018-12-07T05:04:55.130Z,4.17
2018-12-07T05:08:00.787Z,4.24
2018-12-07T05:11:05.359Z,4.17
2018-12-07T05:14:10.079Z,4.27
2018-12-07T05:17:14.628Z,4.26
2018-12-07T05:20:19.160Z,4.27
2018-12-07T05:23:23.807Z,4.21
2018-12-07T05:26:28.323Z,4.33
2018-12-07T05:29:32.857Z,4.25
2018-12-07T05:32:37.377Z,4.17
2018-12-07T05:35:41.903Z,4.15
2018-12-07T05:38:46.526Z,4.36
2018-12-07T05:41:51.130Z,4.25
2018-12-07T05:44:55.675Z,4.22
2018-12-07T05:48:00.243Z,4.27
2018-12-07T05:51:05.013Z,4.34
2018-12-07T05:54:09.600Z,4.50
2018-12-07T05:57:14.161Z,4.54
2018-12-07T06:00:18.708Z,4.47
2018-12-07T06:03:23.265Z,4.17
2018-12-07T06:06:28.018Z,4.45
2018-12-07T06:09:33.072Z,4.57
2018-12-07T06:12:37.914Z,4.72
2018-12-07T06:15:42.488Z,4.46
2018-12-07T06:18:47.054Z,5.26
2018-12-07T06:21:51.569Z,5.34
2018-12-07T06:24:56.075Z,5.38
2018-12-07T06:28:00.603Z,5.35
2018-12-07T06:31:05.218Z,5.40
2018-12-07T06:34:09.838Z,5.44
2018-12-07T06:37:14.491Z,5.27
2018-12-07T06:40:19.014Z,5.28
2018-12-07T06:43:23.557Z,5.11
2018-12-07T06:46:28.074Z,5.17
2018-12-07T06:49:32.635Z,5.17
2018-12-07T06:52:37.308Z,5.06
2018-12-07T06:55:41.876Z,5.16
2018-12-07T06:58:46.392Z,4.69
2018-12-07T07:01:50.961Z,4.96
2018-12-07T07:04:55.490Z,4.96
2018-12-07T07:08:00.091Z,4.68
2018-12-07T07:11:04.682Z,5.20
2018-12-07T07:14:09.255Z,5.81
2018-12-07T07:17:13.781Z,5.70
2018-12-07T07:20:18.342Z,5.81
2018-12-07T07:23:22.925Z,6.33
2018-12-07T07:26:27.434Z,6.94
2018-12-07T07:29:32.004Z,7.24
2018-12-07T07:32:36.538Z,7.48
2018-12-07T07:35:41.108Z,7.54
2018-12-07T07:38:45.753Z,7.71
2018-12-07T07:41:50.362Z,7.23
2018-12-07T07:44:54.926Z,6.89
2018-12-07T07:47:59.422Z,7.31
2018-12-07T07:51:03.958Z,7.33
2018-12-07T07:54:08.489Z,7.36
2018-12-07T07:57:13.058Z,7.80
2018-12-07T08:00:17.632Z,8.21
2018-12-07T08:03:22.293Z,8.32
2018-12-07T08:06:26.782Z,8.70
2018-12-07T08:09:31.362Z,8.89
2018-12-07T08:12:35.975Z,8.93
2018-12-07T08:15:40.559Z,9.30
2018-12-07T08:18:45.070Z,9.69
2018-12-07T08:21:49.615Z,9.70
2018-12-07T08:24:54.159Z,10.10
2018-12-07T08:27:58.690Z,9.91
2018-12-07T08:31:03.287Z,9.88
2018-12-07T08:34:07.886Z,9.89
2018-12-07T08:37:12.495Z,9.95
2018-12-07T08:40:17.028Z,9.47
2018-12-07T08:43:21.631Z,9.60
2018-12-07T08:46:26.222Z,9.38
2018-12-07T08:49:35.814Z,10.08
2018-12-07T08:52:46.664Z,8.79
2018-12-07T08:55:51.224Z,9.71
2018-12-07T08:58:55.771Z,10.20
2018-12-07T09:02:00.560Z,10.14
2018-12-07T09:05:05.891Z,9.99
2018-12-07T09:08:15.263Z,10.46
2018-12-07T09:11:17.004Z,9.93
2018-12-07T09:14:21.644Z,10.01
2018-12-07T09:17:26.155Z,9.81
2018-12-07T09:20:30.799Z,9.81
2018-12-07T09:23:35.566Z,9.44
2018-12-07T09:26:40.083Z,9.42
2018-12-07T09:29:44.606Z,9.30
2018-12-07T09:32:49.135Z,9.37
2018-12-07T09:35:53.732Z,8.94
2018-12-07T09:38:58.262Z,9.51
2018-12-07T09:42:02.866Z,10.08
2018-12-07T09:45:08.116Z,9.82
2018-12-07T09:48:12.692Z,9.49
2018-12-07T09:51:17.203Z,10.34
2018-12-07T09:54:21.808Z,10.49
2018-12-07T09:57:26.332Z,10.70
2018-12-07T10:00:31.024Z,11.20
2018-12-07T10:03:35.551Z,10.98
2018-12-07T10:06:40.086Z,10.77
2018-12-07T10:09:44.610Z,10.44
2018-12-07T10:12:49.157Z,10.88
2018-12-07T10:15:53.693Z,11.40
2018-12-07T10:18:58.721Z,11.55
2018-12-07T10:22:03.300Z,11.84
2018-12-07T10:25:07.895Z,11.95
2018-12-07T10:28:12.425Z,11.89
2018-12-07T10:31:16.963Z,11.83
2018-12-07T10:34:21.713Z,11.26
2018-12-07T10:37:26.318Z,10.95
2018-12-07T10:40:30.916Z,11.02
2018-12-07T10:43:35.472Z,11.09
2018-12-07T10:46:40.248Z,10.75
2018-12-07T10:49:44.955Z,9.80
2018-12-07T10:52:49.459Z,9.32
2018-12-07T10:55:53.974Z,9.05
2018-12-07T10:58:58.590Z,9.20
2018-12-07T11:02:08.185Z,9.71
2018-12-07T11:05:17.973Z,9.73
2018-12-07T11:08:27.543Z,9.88
2018-12-07T11:11:37.396Z,9.75
2018-12-07T11:14:47.000Z,9.54
2018-12-07T11:17:56.758Z,9.69
2018-12-07T11:21:06.543Z,10.14
2018-12-07T11:24:16.526Z,9.89
2018-12-07T11:27:26.134Z,9.96
2018-12-07T11:30:35.824Z,9.27
2018-12-07T11:33:47.439Z,8.84
2018-12-07T11:36:52.177Z,8.51
2018-12-07T11:39:56.775Z,8.73
2018-12-07T11:43:03.409Z,8.78
2018-12-07T11:46:07.981Z,8.84
2018-12-07T11:49:12.640Z,8.79
2018-12-07T11:52:17.187Z,8.73
2018-12-07T11:55:22.840Z,8.73
2018-12-07T11:58:27.326Z,8.22
2018-12-07T12:01:31.972Z,8.27
2018-12-07T12:04:36.495Z,8.19
2018-12-07T12:07:41.128Z,8.50
2018-12-07T12:10:45.720Z,8.34
2018-12-07T12:13:50.279Z,8.08
2018-12-07T12:16:54.853Z,8.16
2018-12-07T12:19:59.361Z,8.45
2018-12-07T12:23:03.892Z,7.99
2018-12-07T12:26:08.555Z,8.30
2018-12-07T12:29:13.258Z,8.21
2018-12-07T12:32:17.998Z,8.38
2018-12-07T12:35:22.584Z,8.34
2018-12-07T12:38:27.174Z,8.18
2018-12-07T12:41:32.390Z,8.33
2018-12-07T12:44:37.006Z,8.14
2018-12-07T12:47:41.680Z,7.99
2018-12-07T12:50:46.242Z,8.21
2018-12-07T12:53:50.808Z,8.35
2018-12-07T12:56:55.302Z,8.31
2018-12-07T12:59:59.891Z,8.29
2018-12-07T13:03:04.460Z,8.31
2018-12-07T13:06:09.018Z,8.54
2018-12-07T13:09:13.582Z,8.38
2018-12-07T13:12:18.082Z,7.91
2018-12-07T13:15:22.679Z,8.00
2018-12-07T13:18:27.199Z,7.93
2018-12-07T13:21:31.775Z,8.30
2018-12-07T13:24:36.291Z,8.07
2018-12-07T13:27:40.863Z,8.03
2018-12-07T13:30:45.391Z,8.33
2018-12-07T13:33:49.965Z,8.28
2018-12-07T13:36:57.302Z,8.04
2018-12-07T13:40:01.908Z,8.01
2018-12-07T13:43:07.770Z,8.05
2018-12-07T13:46:12.442Z,7.96
2018-12-07T13:49:17.259Z,8.05
2018-12-07T13:52:21.848Z,7.83
2018-12-07T13:55:27.887Z,8.04
2018-12-07T13:58:34.559Z,7.65
2018-12-07T14:01:39.195Z,8.06
2018-12-07T14:04:43.779Z,7.64
2018-12-07T14:07:48.562Z,7.85
2018-12-07T14:10:53.338Z,7.75
2018-12-07T14:13:58.095Z,7.81
2018-12-07T14:17:02.687Z,7.42
2018-12-07T14:20:08.737Z,7.76
2018-12-07T14:23:13.664Z,7.24
2018-12-07T14:26:18.342Z,7.37
2018-12-07T14:29:23.155Z,7.08
2018-12-07T14:32:29.205Z,7.44
2018-12-07T14:35:33.877Z,7.49
2018-12-07T14:38:38.561Z,7.66
2018-12-07T14:41:43.224Z,7.57
2018-12-07T14:44:47.983Z,7.56
2018-12-07T14:47:52.586Z,7.51
2018-12-07T14:50:57.366Z,7.14
2018-12-07T14:54:02.118Z,7.17
2018-12-07T14:57:07.073Z,7.04
2018-12-07T15:00:11.917Z,7.24
2018-12-07T15:03:18.702Z,7.13
2018-12-07T15:06:23.460Z,7.28
2018-12-07T15:09:28.190Z,7.19
2018-12-07T15:12:32.821Z,7.35
2018-12-07T15:15:37.626Z,7.25
2018-12-07T15:18:42.355Z,7.11
2018-12-07T15:21:47.174Z,7.02
2018-12-07T15:24:51.931Z,7.07
2018-12-07T15:27:56.862Z,7.02
2018-12-07T15:31:01.763Z,7.17
2018-12-07T15:34:06.670Z,7.16
2018-12-07T15:37:11.619Z,6.77
2018-12-07T15:40:16.403Z,7.08
2018-12-07T15:43:21.309Z,6.82
2018-12-07T15:46:26.596Z,7.16
2018-12-07T15:49:31.363Z,6.74
2018-12-07T15:52:35.982Z,7.20
2018-12-07T15:55:40.671Z,6.93
2018-12-07T15:58:45.263Z,7.25
2018-12-07T16:01:49.995Z,7.02
2018-12-07T16:04:54.864Z,6.77
2018-12-07T16:07:59.652Z,7.02
2018-12-07T16:11:04.634Z,7.13
2018-12-07T16:14:09.401Z,7.20
2018-12-07T16:17:14.203Z,7.25
2018-12-07T16:20:19.993Z,7.14
2018-12-07T16:23:25.056Z,7.33
2018-12-07T16:26:30.666Z,7.36
2018-12-07T16:29:35.302Z,7.37
2018-12-07T16:32:41.187Z,7.29
2018-12-07T16:35:46.179Z,7.25
2018-12-07T16:38:50.825Z,7.37
2018-12-07T16:41:55.477Z,7.19
2018-12-07T16:45:00.126Z,7.24
2018-12-07T16:48:04.989Z,7.37
2018-12-07T16:51:09.709Z,7.32
2018-12-07T16:54:14.366Z,7.48
2018-12-07T16:57:20.015Z,7.32
2018-12-07T17:00:24.720Z,7.45
2018-12-07T17:03:29.567Z,7.44
2018-12-07T17:06:34.401Z,7.04
2018-12-07T17:09:39.601Z,7.23
2018-12-07T17:12:44.557Z,7.07
2018-12-07T17:15:49.260Z,7.26
2018-12-07T17:18:54.272Z,7.03
2018-12-07T17:21:58.836Z,6.90
2018-12-07T17:25:04.304Z,7.06
2018-12-07T17:28:09.529Z,6.79
2018-12-07T17:31:14.431Z,6.97
2018-12-07T17:34:19.129Z,6.64
2018-12-07T17:37:23.802Z,6.73
2018-12-07T17:40:28.876Z,6.93
2018-12-07T17:43:33.944Z,6.98
2018-12-07T17:46:38.726Z,7.00
2018-12-07T17:49:43.497Z,7.09
2018-12-07T17:52:48.194Z,7.16
2018-12-07T17:55:54.247Z,7.04
2018-12-07T17:58:59.018Z,6.96
2018-12-07T18:02:03.568Z,7.09
2018-12-07T18:05:09.274Z,7.04
2018-12-07T18:08:13.975Z,6.90
2018-12-07T18:11:18.754Z,6.99
2018-12-07T18:14:23.491Z,7.04
2018-12-07T18:17:28.225Z,6.98
2018-12-07T18:20:32.849Z,6.98
2018-12-07T18:23:37.732Z,6.98
2018-12-07T18:26:42.446Z,6.89
2018-12-07T18:29:47.119Z,6.87
2018-12-07T18:32:51.764Z,6.82
2018-12-07T18:35:56.593Z,6.86
2018-12-07T18:39:01.455Z,6.69
2018-12-07T18:42:08.065Z,6.20
2018-12-07T18:45:13.008Z,6.59
2018-12-07T18:48:17.793Z,6.76
2018-12-07T18:51:22.483Z,6.74
2018-12-07T18:54:27.078Z,6.21
2018-12-07T18:57:31.695Z,5.95
2018-12-07T19:00:36.770Z,5.92
2018-12-07T19:03:41.663Z,6.08
2018-12-07T19:06:46.291Z,6.44
2018-12-07T19:09:50.956Z,6.48
2018-12-07T19:12:55.691Z,6.12
2018-12-07T19:16:00.309Z,6.03
2018-12-07T19:19:04.887Z,5.83
2018-12-07T19:22:09.419Z,6.10
2018-12-07T19:25:14.181Z,5.98
2018-12-07T19:28:18.930Z,6.37
2018-12-07T19:31:23.638Z,6.55
2018-12-07T19:34:28.441Z,6.55
2018-12-07T19:37:33.277Z,6.44
2018-12-07T19:40:38.128Z,6.64
2018-12-07T19:43:43.090Z,6.68
2018-12-07T19:46:47.853Z,6.60
2018-12-07T19:49:52.573Z,6.16
2018-12-07T19:52:57.464Z,6.22
2018-12-07T19:56:02.465Z,6.05
2018-12-07T19:59:07.273Z,5.81
2018-12-07T20:02:12.053Z,6.28
2018-12-07T20:05:19.036Z,6.30
2018-12-07T20:08:23.799Z,6.41
2018-12-07T20:11:28.574Z,6.53
2018-12-07T20:14:33.198Z,6.45
2018-12-07T20:17:37.770Z,6.52
2018-12-07T20:20:42.863Z,5.89
2018-12-07T20:23:47.488Z,6.14
2018-12-07T20:26:52.481Z,6.21
2018-12-07T20:29:57.801Z,5.60
2018-12-07T20:33:02.354Z,5.86
2018-12-07T20:36:06.972Z,5.98
2018-12-07T20:39:11.952Z,5.90
2018-12-07T20:42:18.115Z,5.03
2018-12-07T20:45:23.049Z,5.50
2018-12-07T20:48:27.736Z,5.81
2018-12-07T20:51:32.670Z,5.94
2018-12-07T20:54:37.360Z,6.08
2018-12-07T20:57:41.941Z,6.06
2018-12-07T21:00:46.741Z,5.80
2018-12-07T21:07:55.280Z,5.97
2018-12-07T21:11:05.456Z,5.84
2018-12-07T21:14:20.567Z,6.04
2018-12-07T21:17:30.874Z,5.87
2018-12-07T21:20:35.759Z,5.64
2018-12-07T21:23:40.508Z,5.77
2018-12-07T21:26:45.189Z,5.74
2018-12-07T21:36:42.759Z,5.66
2018-12-07T21:39:53.456Z,5.34
2018-12-07T21:42:58.670Z,5.26
2018-12-07T21:46:03.632Z,4.67
2018-12-07T21:49:08.748Z,5.01
2018-12-07T21:52:21.482Z,5.20
2018-12-07T21:55:26.435Z,5.36
2018-12-07T21:58:31.502Z,5.58
2018-12-07T22:01:36.520Z,5.21
2018-12-07T22:04:41.879Z,4.45
2018-12-07T22:07:46.842Z,4.46
2018-12-07T22:10:51.927Z,4.67
2018-12-07T22:13:56.781Z,4.83
2018-12-07T22:17:01.954Z,5.08
2018-12-07T22:20:07.367Z,5.36
2018-12-07T22:23:12.277Z,5.35
2018-12-07T22:26:17.012Z,4.89
2018-12-07T22:29:22.374Z,5.23
2018-12-07T22:32:27.510Z,4.89
2018-12-07T22:35:32.590Z,4.60
2018-12-07T22:38:37.513Z,4.29
2018-12-07T22:41:42.430Z,4.47
2018-12-07T22:44:47.364Z,5.04
2018-12-07T22:47:52.235Z,5.28
2018-12-07T22:50:57.109Z,5.35
2018-12-07T22:54:01.850Z,5.42
2018-12-07T22:57:09.721Z,5.37
2018-12-07T23:00:18.810Z,5.51
2018-12-07T23:03:25.748Z,5.35
2018-12-07T23:06:30.501Z,5.14
2018-12-07T23:09:35.415Z,5.37
2018-12-07T23:12:40.164Z,5.44
2018-12-07T23:15:44.989Z,5.45
2018-12-07T23:18:49.766Z,5.37
2018-12-07T23:21:54.575Z,5.45
2018-12-07T23:24:59.322Z,5.44
2018-12-07T23:28:04.155Z,5.44
2018-12-07T23:31:08.871Z,5.53
2018-12-07T23:34:13.668Z,5.41
2018-12-07T23:37:18.784Z,5.14
2018-12-07T23:40:23.892Z,5.13
2018-12-07T23:43:29.072Z,5.07
2018-12-07T23:46:34.254Z,5.13
2018-12-07T23:49:38.982Z,5.18
2018-12-07T23:52:43.734Z,5.35
2018-12-07T23:55:48.486Z,5.32
2018-12-07T23:58:53.228Z,5.16
